sensor_id;sensor_type;location;lat;lon;timestamp;temperature;humidity
16881;DHT22;8557;52.068;5.198;2022-07-29T00:00:37;18.40;4.00
16881;DHT22;8557;52.068;5.198;2022-07-29T00:03:04;18.30;4.30
16881;DHT22;8557;52.068;5.198;2022-07-29T00:05:31;18.30;4.30
16881;DHT22;8557;52.068;5.198;2022-07-29T00:07:58;18.30;5.50
16881;DHT22;8557;52.068;5.198;2022-07-29T00:10:26;18.30;6.60
16881;DHT22;8557;52.068;5.198;2022-07-29T00:12:52;18.30;7.70
16881;DHT22;8557;52.068;5.198;2022-07-29T00:15:19;18.30;8.80
16881;DHT22;8557;52.068;5.198;2022-07-29T00:17:46;18.30;8.30
16881;DHT22;8557;52.068;5.198;2022-07-29T00:20:12;18.30;7.40
16881;DHT22;8557;52.068;5.198;2022-07-29T00:22:39;18.30;7.00
16881;DHT22;8557;52.068;5.198;2022-07-29T00:25:07;18.30;7.70
16881;DHT22;8557;52.068;5.198;2022-07-29T00:27:36;18.30;8.30
16881;DHT22;8557;52.068;5.198;2022-07-29T00:30:03;18.20;8.20
16881;DHT22;8557;52.068;5.198;2022-07-29T00:32:30;18.20;9.10
16881;DHT22;8557;52.068;5.198;2022-07-29T00:34:57;18.10;11.20
16881;DHT22;8557;52.068;5.198;2022-07-29T00:37:41;18.10;13.20
16881;DHT22;8557;52.068;5.198;2022-07-29T00:40:08;18.00;15.20
16881;DHT22;8557;52.068;5.198;2022-07-29T00:42:43;18.00;16.80
16881;DHT22;8557;52.068;5.198;2022-07-29T00:45:10;18.00;18.20
16881;DHT22;8557;52.068;5.198;2022-07-29T00:47:37;18.00;19.10
16881;DHT22;8557;52.068;5.198;2022-07-29T00:50:05;18.00;19.70
16881;DHT22;8557;52.068;5.198;2022-07-29T00:52:32;18.00;20.00
16881;DHT22;8557;52.068;5.198;2022-07-29T00:54:59;18.00;19.00
16881;DHT22;8557;52.068;5.198;2022-07-29T00:57:26;18.00;20.20
16881;DHT22;8557;52.068;5.198;2022-07-29T00:59:54;17.90;21.20
16881;DHT22;8557;52.068;5.198;2022-07-29T01:02:21;17.90;21.50
16881;DHT22;8557;52.068;5.198;2022-07-29T01:04:48;17.80;22.70
16881;DHT22;8557;52.068;5.198;2022-07-29T01:07:16;17.80;24.90
16881;DHT22;8557;52.068;5.198;2022-07-29T01:09:44;17.80;26.70
16881;DHT22;8557;52.068;5.198;2022-07-29T01:12:13;17.80;28.00
16881;DHT22;8557;52.068;5.198;2022-07-29T01:14:41;17.80;28.20
16881;DHT22;8557;52.068;5.198;2022-07-29T01:17:11;17.70;28.80
16881;DHT22;8557;52.068;5.198;2022-07-29T01:19:48;17.70;29.40
16881;DHT22;8557;52.068;5.198;2022-07-29T01:22:31;17.70;30.00
16881;DHT22;8557;52.068;5.198;2022-07-29T01:25:10;17.70;31.20
16881;DHT22;8557;52.068;5.198;2022-07-29T01:27:51;17.70;31.80
16881;DHT22;8557;52.068;5.198;2022-07-29T01:30:22;17.70;32.70
16881;DHT22;8557;52.068;5.198;2022-07-29T01:32:56;17.60;34.40
16881;DHT22;8557;52.068;5.198;2022-07-29T01:35:27;17.50;37.10
16881;DHT22;8557;52.068;5.198;2022-07-29T01:38:06;17.50;39.00
16881;DHT22;8557;52.068;5.198;2022-07-29T01:40:38;17.40;40.80
16881;DHT22;8557;52.068;5.198;2022-07-29T01:43:10;17.40;43.40
16881;DHT22;8557;52.068;5.198;2022-07-29T01:45:41;17.40;46.20
16881;DHT22;8557;52.068;5.198;2022-07-29T01:48:13;17.30;47.80
16881;DHT22;8557;52.068;5.198;2022-07-29T01:50:47;17.30;48.10
16881;DHT22;8557;52.068;5.198;2022-07-29T01:53:21;17.30;49.40
16881;DHT22;8557;52.068;5.198;2022-07-29T01:55:50;17.30;50.40
16881;DHT22;8557;52.068;5.198;2022-07-29T01:58:19;17.30;50.90
16881;DHT22;8557;52.068;5.198;2022-07-29T02:00:49;17.30;51.40
16881;DHT22;8557;52.068;5.198;2022-07-29T02:03:17;17.30;52.60
16881;DHT22;8557;52.068;5.198;2022-07-29T02:05:47;17.20;54.00
16881;DHT22;8557;52.068;5.198;2022-07-29T02:08:15;17.20;54.30
16881;DHT22;8557;52.068;5.198;2022-07-29T02:10:44;17.20;54.70
16881;DHT22;8557;52.068;5.198;2022-07-29T02:13:12;17.20;55.20
16881;DHT22;8557;52.068;5.198;2022-07-29T02:15:42;17.20;55.20
16881;DHT22;8557;52.068;5.198;2022-07-29T02:18:14;17.20;55.90
16881;DHT22;8557;52.068;5.198;2022-07-29T02:20:45;17.20;57.00
16881;DHT22;8557;52.068;5.198;2022-07-29T02:23:12;17.20;58.00
16881;DHT22;8557;52.068;5.198;2022-07-29T02:25:41;17.20;58.00
16881;DHT22;8557;52.068;5.198;2022-07-29T02:28:09;17.10;58.60
16881;DHT22;8557;52.068;5.198;2022-07-29T02:30:40;17.10;58.60
16881;DHT22;8557;52.068;5.198;2022-07-29T02:33:12;17.10;59.20
16881;DHT22;8557;52.068;5.198;2022-07-29T02:35:40;17.10;59.40
16881;DHT22;8557;52.068;5.198;2022-07-29T02:38:08;17.10;59.80
16881;DHT22;8557;52.068;5.198;2022-07-29T02:41:11;17.10;59.80
16881;DHT22;8557;52.068;5.198;2022-07-29T02:43:39;17.00;61.90
16881;DHT22;8557;52.068;5.198;2022-07-29T02:46:13;17.00;61.30
16881;DHT22;8557;52.068;5.198;2022-07-29T02:48:48;17.00;62.30
16881;DHT22;8557;52.068;5.198;2022-07-29T02:51:21;17.00;65.20
16881;DHT22;8557;52.068;5.198;2022-07-29T02:53:53;17.00;65.40
16881;DHT22;8557;52.068;5.198;2022-07-29T02:56:25;17.00;67.50
16881;DHT22;8557;52.068;5.198;2022-07-29T02:58:58;16.90;69.20
16881;DHT22;8557;52.068;5.198;2022-07-29T03:01:31;17.00;69.00
16881;DHT22;8557;52.068;5.198;2022-07-29T03:04:02;17.00;66.90
16881;DHT22;8557;52.068;5.198;2022-07-29T03:06:30;17.00;65.90
16881;DHT22;8557;52.068;5.198;2022-07-29T03:09:00;17.00;66.30
16881;DHT22;8557;52.068;5.198;2022-07-29T03:11:27;17.00;66.20
16881;DHT22;8557;52.068;5.198;2022-07-29T03:13:54;17.00;65.80
16881;DHT22;8557;52.068;5.198;2022-07-29T03:16:21;17.00;64.80
16881;DHT22;8557;52.068;5.198;2022-07-29T03:18:50;17.00;64.30
16881;DHT22;8557;52.068;5.198;2022-07-29T03:21:18;17.00;64.60
16881;DHT22;8557;52.068;5.198;2022-07-29T03:23:45;17.10;64.60
16881;DHT22;8557;52.068;5.198;2022-07-29T03:26:12;17.10;63.30
16881;DHT22;8557;52.068;5.198;2022-07-29T03:28:39;17.20;61.30
16881;DHT22;8557;52.068;5.198;2022-07-29T03:31:05;17.20;60.50
16881;DHT22;8557;52.068;5.198;2022-07-29T03:33:32;17.10;59.30
16881;DHT22;8557;52.068;5.198;2022-07-29T03:35:59;17.10;60.20
16881;DHT22;8557;52.068;5.198;2022-07-29T03:38:30;17.00;60.60
16881;DHT22;8557;52.068;5.198;2022-07-29T03:41:01;17.00;62.00
16881;DHT22;8557;52.068;5.198;2022-07-29T03:43:32;17.00;63.00
16881;DHT22;8557;52.068;5.198;2022-07-29T03:46:02;16.90;63.60
16881;DHT22;8557;52.068;5.198;2022-07-29T03:48:30;16.90;65.10
16881;DHT22;8557;52.068;5.198;2022-07-29T03:50:59;16.90;66.00
16881;DHT22;8557;52.068;5.198;2022-07-29T03:53:25;16.90;66.60
16881;DHT22;8557;52.068;5.198;2022-07-29T03:55:56;16.80;67.50
16881;DHT22;8557;52.068;5.198;2022-07-29T03:58:26;16.80;68.50
16881;DHT22;8557;52.068;5.198;2022-07-29T04:00:54;16.80;69.70
16881;DHT22;8557;52.068;5.198;2022-07-29T04:03:21;16.80;70.70
16881;DHT22;8557;52.068;5.198;2022-07-29T04:05:58;16.80;71.10
16881;DHT22;8557;52.068;5.198;2022-07-29T04:08:25;16.80;71.10
16881;DHT22;8557;52.068;5.198;2022-07-29T04:10:53;16.70;72.00
16881;DHT22;8557;52.068;5.198;2022-07-29T04:13:20;16.70;73.20
16881;DHT22;8557;52.068;5.198;2022-07-29T04:15:47;16.70;74.00
16881;DHT22;8557;52.068;5.198;2022-07-29T04:18:13;16.70;74.60
16881;DHT22;8557;52.068;5.198;2022-07-29T04:20:40;16.70;75.90
16881;DHT22;8557;52.068;5.198;2022-07-29T04:23:07;16.70;75.40
16881;DHT22;8557;52.068;5.198;2022-07-29T04:25:37;16.70;75.90
16881;DHT22;8557;52.068;5.198;2022-07-29T04:28:05;16.70;76.20
16881;DHT22;8557;52.068;5.198;2022-07-29T04:30:33;16.70;76.70
16881;DHT22;8557;52.068;5.198;2022-07-29T04:33:00;16.70;76.60
16881;DHT22;8557;52.068;5.198;2022-07-29T04:35:27;16.70;76.80
16881;DHT22;8557;52.068;5.198;2022-07-29T04:37:54;16.70;77.50
16881;DHT22;8557;52.068;5.198;2022-07-29T04:40:21;16.70;78.10
16881;DHT22;8557;52.068;5.198;2022-07-29T04:42:48;16.70;78.60
16881;DHT22;8557;52.068;5.198;2022-07-29T04:45:16;16.70;78.50
16881;DHT22;8557;52.068;5.198;2022-07-29T04:47:43;16.70;78.00
16881;DHT22;8557;52.068;5.198;2022-07-29T04:50:10;16.70;76.10
16881;DHT22;8557;52.068;5.198;2022-07-29T04:52:37;16.80;76.90
16881;DHT22;8557;52.068;5.198;2022-07-29T04:55:05;16.80;76.50
16881;DHT22;8557;52.068;5.198;2022-07-29T04:57:32;16.80;75.70
16881;DHT22;8557;52.068;5.198;2022-07-29T04:59:59;16.80;74.40
16881;DHT22;8557;52.068;5.198;2022-07-29T05:02:27;16.80;73.90
16881;DHT22;8557;52.068;5.198;2022-07-29T05:04:54;16.80;74.60
16881;DHT22;8557;52.068;5.198;2022-07-29T05:07:21;16.80;75.50
16881;DHT22;8557;52.068;5.198;2022-07-29T05:09:47;16.80;76.10
16881;DHT22;8557;52.068;5.198;2022-07-29T05:12:14;16.80;75.90
16881;DHT22;8557;52.068;5.198;2022-07-29T05:14:41;16.80;73.60
16881;DHT22;8557;52.068;5.198;2022-07-29T05:17:08;16.80;73.70
16881;DHT22;8557;52.068;5.198;2022-07-29T05:19:36;16.80;74.50
16881;DHT22;8557;52.068;5.198;2022-07-29T05:22:03;16.90;74.70
16881;DHT22;8557;52.068;5.198;2022-07-29T05:24:30;16.90;74.60
16881;DHT22;8557;52.068;5.198;2022-07-29T05:26:56;16.90;74.20
16881;DHT22;8557;52.068;5.198;2022-07-29T05:29:23;16.90;73.70
16881;DHT22;8557;52.068;5.198;2022-07-29T05:31:50;16.90;73.90
16881;DHT22;8557;52.068;5.198;2022-07-29T05:34:18;17.00;75.00
16881;DHT22;8557;52.068;5.198;2022-07-29T05:36:46;17.00;73.90
16881;DHT22;8557;52.068;5.198;2022-07-29T05:39:13;17.00;72.20
16881;DHT22;8557;52.068;5.198;2022-07-29T05:41:40;17.10;72.50
16881;DHT22;8557;52.068;5.198;2022-07-29T05:44:06;17.10;72.80
16881;DHT22;8557;52.068;5.198;2022-07-29T05:46:33;17.20;68.50
16881;DHT22;8557;52.068;5.198;2022-07-29T05:49:00;17.20;67.50
16881;DHT22;8557;52.068;5.198;2022-07-29T05:51:28;17.30;68.00
16881;DHT22;8557;52.068;5.198;2022-07-29T05:53:56;17.30;67.60
16881;DHT22;8557;52.068;5.198;2022-07-29T05:56:23;17.30;66.50
16881;DHT22;8557;52.068;5.198;2022-07-29T05:58:50;17.40;67.00
16881;DHT22;8557;52.068;5.198;2022-07-29T06:01:17;17.40;65.90
16881;DHT22;8557;52.068;5.198;2022-07-29T06:03:44;17.50;61.80
16881;DHT22;8557;52.068;5.198;2022-07-29T06:06:11;17.50;59.60
16881;DHT22;8557;52.068;5.198;2022-07-29T06:08:38;17.60;55.50
16881;DHT22;8557;52.068;5.198;2022-07-29T06:11:07;17.60;55.20
16881;DHT22;8557;52.068;5.198;2022-07-29T06:13:34;17.50;56.60
16881;DHT22;8557;52.068;5.198;2022-07-29T06:16:00;17.50;57.30
16881;DHT22;8557;52.068;5.198;2022-07-29T06:18:27;17.60;58.60
16881;DHT22;8557;52.068;5.198;2022-07-29T06:20:54;17.60;58.30
16881;DHT22;8557;52.068;5.198;2022-07-29T06:23:21;17.70;53.20
16881;DHT22;8557;52.068;5.198;2022-07-29T06:25:48;17.80;49.50
16881;DHT22;8557;52.068;5.198;2022-07-29T06:28:16;17.80;50.90
16881;DHT22;8557;52.068;5.198;2022-07-29T06:30:42;17.90;47.30
16881;DHT22;8557;52.068;5.198;2022-07-29T06:33:09;18.00;41.60
16881;DHT22;8557;52.068;5.198;2022-07-29T06:35:42;18.20;29.60
16881;DHT22;8557;52.068;5.198;2022-07-29T06:38:09;18.20;30.10
16881;DHT22;8557;52.068;5.198;2022-07-29T06:40:36;18.30;30.40
16881;DHT22;8557;52.068;5.198;2022-07-29T06:43:25;18.40;29.10
16881;DHT22;8557;52.068;5.198;2022-07-29T06:45:52;18.40;28.00
16881;DHT22;8557;52.068;5.198;2022-07-29T06:48:19;18.50;27.40
16881;DHT22;8557;52.068;5.198;2022-07-29T06:50:46;18.60;18.20
16881;DHT22;8557;52.068;5.198;2022-07-29T06:53:13;18.70;16.80
16881;DHT22;8557;52.068;5.198;2022-07-29T06:55:39;18.70;11.80
16881;DHT22;8557;52.068;5.198;2022-07-29T06:58:06;18.80;9.30
16881;DHT22;8557;52.068;5.198;2022-07-29T07:00:35;18.80;7.00
16881;DHT22;8557;52.068;5.198;2022-07-29T07:03:02;18.90;5.30
16881;DHT22;8557;52.068;5.198;2022-07-29T07:05:29;18.80;1.50
16881;DHT22;8557;52.068;5.198;2022-07-29T07:07:56;18.90;2.80
16881;DHT22;8557;52.068;5.198;2022-07-29T07:10:23;18.90;2.30
16881;DHT22;8557;52.068;5.198;2022-07-29T07:12:49;18.90;1.00
16881;DHT22;8557;52.068;5.198;2022-07-29T07:15:16;19.00;1.00
16881;DHT22;8557;52.068;5.198;2022-07-29T07:17:48;19.00;1.00
16881;DHT22;8557;52.068;5.198;2022-07-29T07:20:15;19.00;1.00
16881;DHT22;8557;52.068;5.198;2022-07-29T07:22:42;19.10;1.00
16881;DHT22;8557;52.068;5.198;2022-07-29T07:25:09;19.10;1.00
16881;DHT22;8557;52.068;5.198;2022-07-29T07:27:37;19.10;1.00
16881;DHT22;8557;52.068;5.198;2022-07-29T07:30:06;19.30;1.00
16881;DHT22;8557;52.068;5.198;2022-07-29T07:32:33;19.40;1.00
16881;DHT22;8557;52.068;5.198;2022-07-29T07:35:03;19.50;1.00
16881;DHT22;8557;52.068;5.198;2022-07-29T07:37:30;19.50;1.00
16881;DHT22;8557;52.068;5.198;2022-07-29T07:39:57;19.60;1.00
16881;DHT22;8557;52.068;5.198;2022-07-29T07:42:24;19.80;1.00
16881;DHT22;8557;52.068;5.198;2022-07-29T07:44:51;19.90;1.00
16881;DHT22;8557;52.068;5.198;2022-07-29T07:47:18;20.00;1.00
16881;DHT22;8557;52.068;5.198;2022-07-29T07:49:46;20.10;1.00
16881;DHT22;8557;52.068;5.198;2022-07-29T07:52:15;20.20;1.00
16881;DHT22;8557;52.068;5.198;2022-07-29T07:54:42;20.20;1.00
16881;DHT22;8557;52.068;5.198;2022-07-29T07:57:10;20.30;1.00
16881;DHT22;8557;52.068;5.198;2022-07-29T07:59:37;20.40;1.00
16881;DHT22;8557;52.068;5.198;2022-07-29T08:02:04;20.40;1.00
16881;DHT22;8557;52.068;5.198;2022-07-29T08:04:31;20.30;1.00
16881;DHT22;8557;52.068;5.198;2022-07-29T08:06:58;20.20;1.00
16881;DHT22;8557;52.068;5.198;2022-07-29T08:09:28;20.20;1.00
16881;DHT22;8557;52.068;5.198;2022-07-29T08:11:56;20.10;1.00
16881;DHT22;8557;52.068;5.198;2022-07-29T08:14:23;20.10;1.00
16881;DHT22;8557;52.068;5.198;2022-07-29T08:16:50;20.10;1.00
16881;DHT22;8557;52.068;5.198;2022-07-29T08:19:17;20.00;1.00
16881;DHT22;8557;52.068;5.198;2022-07-29T08:21:43;20.00;1.00
16881;DHT22;8557;52.068;5.198;2022-07-29T08:24:10;19.90;1.00
16881;DHT22;8557;52.068;5.198;2022-07-29T08:26:56;19.90;1.00
16881;DHT22;8557;52.068;5.198;2022-07-29T08:29:23;19.90;1.00
16881;DHT22;8557;52.068;5.198;2022-07-29T08:31:49;19.90;1.00
16881;DHT22;8557;52.068;5.198;2022-07-29T08:34:16;19.90;1.00
16881;DHT22;8557;52.068;5.198;2022-07-29T08:36:43;20.00;1.00
16881;DHT22;8557;52.068;5.198;2022-07-29T08:39:10;20.00;1.00
16881;DHT22;8557;52.068;5.198;2022-07-29T08:41:36;20.00;1.00
16881;DHT22;8557;52.068;5.198;2022-07-29T08:44:05;20.10;1.00
16881;DHT22;8557;52.068;5.198;2022-07-29T08:46:31;20.00;1.00
16881;DHT22;8557;52.068;5.198;2022-07-29T08:48:58;20.10;1.00
16881;DHT22;8557;52.068;5.198;2022-07-29T08:51:25;20.10;1.00
16881;DHT22;8557;52.068;5.198;2022-07-29T08:53:53;20.20;1.00
16881;DHT22;8557;52.068;5.198;2022-07-29T08:56:21;20.30;1.00
16881;DHT22;8557;52.068;5.198;2022-07-29T08:58:48;20.50;1.00
16881;DHT22;8557;52.068;5.198;2022-07-29T09:01:22;20.50;1.00
16881;DHT22;8557;52.068;5.198;2022-07-29T09:03:49;20.60;1.00
16881;DHT22;8557;52.068;5.198;2022-07-29T09:06:18;20.70;1.00
16881;DHT22;8557;52.068;5.198;2022-07-29T09:08:45;20.80;1.00
16881;DHT22;8557;52.068;5.198;2022-07-29T09:11:12;20.90;1.00
16881;DHT22;8557;52.068;5.198;2022-07-29T09:13:39;20.90;1.00
16881;DHT22;8557;52.068;5.198;2022-07-29T09:16:06;21.00;1.00
16881;DHT22;8557;52.068;5.198;2022-07-29T09:18:35;21.10;1.00
16881;DHT22;8557;52.068;5.198;2022-07-29T09:21:03;21.20;1.00
16881;DHT22;8557;52.068;5.198;2022-07-29T09:24:03;21.30;1.00
16881;DHT22;8557;52.068;5.198;2022-07-29T09:26:30;21.40;1.00
16881;DHT22;8557;52.068;5.198;2022-07-29T09:28:58;21.50;1.00
16881;DHT22;8557;52.068;5.198;2022-07-29T09:31:33;21.60;1.00
16881;DHT22;8557;52.068;5.198;2022-07-29T09:34:03;21.60;1.00
16881;DHT22;8557;52.068;5.198;2022-07-29T09:36:30;21.80;1.00
16881;DHT22;8557;52.068;5.198;2022-07-29T09:38:58;21.80;1.00
16881;DHT22;8557;52.068;5.198;2022-07-29T09:41:25;21.90;1.00
16881;DHT22;8557;52.068;5.198;2022-07-29T09:43:56;22.00;1.00
16881;DHT22;8557;52.068;5.198;2022-07-29T09:46:24;22.00;1.00
16881;DHT22;8557;52.068;5.198;2022-07-29T09:49:08;22.10;1.00
16881;DHT22;8557;52.068;5.198;2022-07-29T09:51:36;22.30;1.00
16881;DHT22;8557;52.068;5.198;2022-07-29T09:54:21;22.30;1.00
16881;DHT22;8557;52.068;5.198;2022-07-29T09:56:49;22.40;1.00
16881;DHT22;8557;52.068;5.198;2022-07-29T09:59:16;22.50;1.00
16881;DHT22;8557;52.068;5.198;2022-07-29T10:01:43;22.60;1.00
16881;DHT22;8557;52.068;5.198;2022-07-29T10:04:11;22.80;1.00
16881;DHT22;8557;52.068;5.198;2022-07-29T10:06:55;22.80;1.00
16881;DHT22;8557;52.068;5.198;2022-07-29T10:09:23;22.90;1.00
16881;DHT22;8557;52.068;5.198;2022-07-29T10:12:03;22.90;1.00
16881;DHT22;8557;52.068;5.198;2022-07-29T10:14:31;23.00;1.00
16881;DHT22;8557;52.068;5.198;2022-07-29T10:16:59;23.00;1.00
16881;DHT22;8557;52.068;5.198;2022-07-29T10:19:28;23.00;1.00
16881;DHT22;8557;52.068;5.198;2022-07-29T10:21:56;23.10;1.00
16881;DHT22;8557;52.068;5.198;2022-07-29T10:24:24;23.20;1.00
16881;DHT22;8557;52.068;5.198;2022-07-29T10:26:52;23.20;1.00
16881;DHT22;8557;52.068;5.198;2022-07-29T10:29:20;23.30;1.00
16881;DHT22;8557;52.068;5.198;2022-07-29T10:31:52;23.40;1.00
16881;DHT22;8557;52.068;5.198;2022-07-29T10:34:32;23.40;1.00
16881;DHT22;8557;52.068;5.198;2022-07-29T10:37:09;23.50;1.00
16881;DHT22;8557;52.068;5.198;2022-07-29T10:39:50;23.50;1.00
16881;DHT22;8557;52.068;5.198;2022-07-29T10:42:21;23.70;1.00
16881;DHT22;8557;52.068;5.198;2022-07-29T10:44:49;23.70;1.00
16881;DHT22;8557;52.068;5.198;2022-07-29T10:47:21;23.80;1.00
16881;DHT22;8557;52.068;5.198;2022-07-29T10:50:00;23.90;1.00
16881;DHT22;8557;52.068;5.198;2022-07-29T10:52:52;23.90;1.00
16881;DHT22;8557;52.068;5.198;2022-07-29T10:55:33;23.90;1.00
16881;DHT22;8557;52.068;5.198;2022-07-29T10:58:12;23.80;1.00
16881;DHT22;8557;52.068;5.198;2022-07-29T11:00:40;23.80;1.00
16881;DHT22;8557;52.068;5.198;2022-07-29T11:03:07;23.80;1.00
16881;DHT22;8557;52.068;5.198;2022-07-29T11:05:53;23.70;1.00
16881;DHT22;8557;52.068;5.198;2022-07-29T11:08:24;23.70;1.00
16881;DHT22;8557;52.068;5.198;2022-07-29T11:10:53;23.80;1.00
16881;DHT22;8557;52.068;5.198;2022-07-29T11:13:45;23.70;1.00
16881;DHT22;8557;52.068;5.198;2022-07-29T11:16:13;23.70;1.00
16881;DHT22;8557;52.068;5.198;2022-07-29T11:21:43;23.80;1.00
16881;DHT22;8557;52.068;5.198;2022-07-29T11:24:13;23.90;1.00
16881;DHT22;8557;52.068;5.198;2022-07-29T11:26:40;24.00;1.00
16881;DHT22;8557;52.068;5.198;2022-07-29T11:29:17;24.00;1.00
16881;DHT22;8557;52.068;5.198;2022-07-29T11:31:47;24.00;1.00
16881;DHT22;8557;52.068;5.198;2022-07-29T11:34:18;24.10;1.00
16881;DHT22;8557;52.068;5.198;2022-07-29T11:37:16;24.10;1.00
16881;DHT22;8557;52.068;5.198;2022-07-29T11:39:44;24.10;1.00
16881;DHT22;8557;52.068;5.198;2022-07-29T11:42:39;24.20;1.00
16881;DHT22;8557;52.068;5.198;2022-07-29T11:45:08;24.20;1.00
16881;DHT22;8557;52.068;5.198;2022-07-29T11:47:37;24.30;1.00
16881;DHT22;8557;52.068;5.198;2022-07-29T11:50:05;24.30;1.00
16881;DHT22;8557;52.068;5.198;2022-07-29T11:52:35;24.40;1.00
16881;DHT22;8557;52.068;5.198;2022-07-29T11:55:04;24.40;1.00
16881;DHT22;8557;52.068;5.198;2022-07-29T11:57:31;24.50;1.00
16881;DHT22;8557;52.068;5.198;2022-07-29T12:00:00;24.50;1.00
16881;DHT22;8557;52.068;5.198;2022-07-29T12:02:38;24.70;1.00
16881;DHT22;8557;52.068;5.198;2022-07-29T12:05:08;24.70;1.00
16881;DHT22;8557;52.068;5.198;2022-07-29T12:07:38;24.80;1.00
16881;DHT22;8557;52.068;5.198;2022-07-29T12:10:06;24.90;1.00
16881;DHT22;8557;52.068;5.198;2022-07-29T12:12:34;24.90;1.00
16881;DHT22;8557;52.068;5.198;2022-07-29T12:15:14;25.00;1.00
16881;DHT22;8557;52.068;5.198;2022-07-29T12:17:43;25.00;1.00
16881;DHT22;8557;52.068;5.198;2022-07-29T12:20:10;25.10;1.00
16881;DHT22;8557;52.068;5.198;2022-07-29T12:22:41;25.20;1.00
16881;DHT22;8557;52.068;5.198;2022-07-29T12:25:11;25.30;1.00
16881;DHT22;8557;52.068;5.198;2022-07-29T12:27:40;25.30;1.00
16881;DHT22;8557;52.068;5.198;2022-07-29T12:30:10;25.40;1.00
16881;DHT22;8557;52.068;5.198;2022-07-29T12:32:38;25.50;1.00
16881;DHT22;8557;52.068;5.198;2022-07-29T12:35:08;25.60;1.00
16881;DHT22;8557;52.068;5.198;2022-07-29T12:37:36;25.70;1.00
16881;DHT22;8557;52.068;5.198;2022-07-29T12:40:06;25.90;1.00
16881;DHT22;8557;52.068;5.198;2022-07-29T12:42:34;26.00;1.00
16881;DHT22;8557;52.068;5.198;2022-07-29T12:45:01;26.10;1.00
16881;DHT22;8557;52.068;5.198;2022-07-29T12:47:28;26.30;1.00
16881;DHT22;8557;52.068;5.198;2022-07-29T12:50:08;26.40;1.00
16881;DHT22;8557;52.068;5.198;2022-07-29T12:52:35;26.60;1.00
16881;DHT22;8557;52.068;5.198;2022-07-29T12:55:05;26.80;1.00
16881;DHT22;8557;52.068;5.198;2022-07-29T12:57:32;27.20;1.00
16881;DHT22;8557;52.068;5.198;2022-07-29T13:00:00;27.60;1.00
16881;DHT22;8557;52.068;5.198;2022-07-29T13:02:28;27.90;1.00
16881;DHT22;8557;52.068;5.198;2022-07-29T13:04:57;28.40;1.00
16881;DHT22;8557;52.068;5.198;2022-07-29T13:07:25;28.70;1.00
16881;DHT22;8557;52.068;5.198;2022-07-29T13:09:53;29.00;1.00
16881;DHT22;8557;52.068;5.198;2022-07-29T13:12:21;29.30;1.00
16881;DHT22;8557;52.068;5.198;2022-07-29T13:14:48;29.60;1.00
16881;DHT22;8557;52.068;5.198;2022-07-29T13:17:17;29.90;1.00
16881;DHT22;8557;52.068;5.198;2022-07-29T13:19:47;30.10;1.00
16881;DHT22;8557;52.068;5.198;2022-07-29T13:22:16;30.30;1.00
16881;DHT22;8557;52.068;5.198;2022-07-29T13:24:50;30.60;1.00
16881;DHT22;8557;52.068;5.198;2022-07-29T13:27:18;30.80;1.00
16881;DHT22;8557;52.068;5.198;2022-07-29T13:29:46;31.00;1.00
16881;DHT22;8557;52.068;5.198;2022-07-29T13:32:14;31.20;1.00
16881;DHT22;8557;52.068;5.198;2022-07-29T13:34:40;31.30;1.00
16881;DHT22;8557;52.068;5.198;2022-07-29T13:37:07;31.50;1.00
16881;DHT22;8557;52.068;5.198;2022-07-29T13:39:34;31.90;1.00
16881;DHT22;8557;52.068;5.198;2022-07-29T13:42:02;32.00;1.00
16881;DHT22;8557;52.068;5.198;2022-07-29T13:44:33;32.20;1.00
16881;DHT22;8557;52.068;5.198;2022-07-29T13:47:02;32.50;1.00
16881;DHT22;8557;52.068;5.198;2022-07-29T13:49:29;32.80;1.00
16881;DHT22;8557;52.068;5.198;2022-07-29T13:51:55;33.10;1.00
16881;DHT22;8557;52.068;5.198;2022-07-29T13:54:22;33.30;1.00
16881;DHT22;8557;52.068;5.198;2022-07-29T13:56:50;33.40;1.00
16881;DHT22;8557;52.068;5.198;2022-07-29T13:59:17;33.50;99.90
16881;DHT22;8557;52.068;5.198;2022-07-29T14:01:44;33.60;99.90
16881;DHT22;8557;52.068;5.198;2022-07-29T14:04:12;33.80;99.90
16881;DHT22;8557;52.068;5.198;2022-07-29T14:06:38;33.80;99.90
16881;DHT22;8557;52.068;5.198;2022-07-29T14:09:05;34.10;99.90
16881;DHT22;8557;52.068;5.198;2022-07-29T14:11:33;34.50;99.90
16881;DHT22;8557;52.068;5.198;2022-07-29T14:14:00;34.80;99.90
16881;DHT22;8557;52.068;5.198;2022-07-29T14:16:30;35.00;99.90
16881;DHT22;8557;52.068;5.198;2022-07-29T14:18:56;35.10;99.90
16881;DHT22;8557;52.068;5.198;2022-07-29T14:21:24;35.00;99.90
16881;DHT22;8557;52.068;5.198;2022-07-29T14:23:52;35.10;99.90
16881;DHT22;8557;52.068;5.198;2022-07-29T14:26:20;35.30;99.90
16881;DHT22;8557;52.068;5.198;2022-07-29T14:28:47;35.30;99.90
16881;DHT22;8557;52.068;5.198;2022-07-29T14:31:13;35.50;99.90
16881;DHT22;8557;52.068;5.198;2022-07-29T14:33:40;35.40;99.90
16881;DHT22;8557;52.068;5.198;2022-07-29T14:36:07;35.30;99.90
16881;DHT22;8557;52.068;5.198;2022-07-29T14:38:36;35.30;99.90
16881;DHT22;8557;52.068;5.198;2022-07-29T14:41:04;35.30;99.90
16881;DHT22;8557;52.068;5.198;2022-07-29T14:43:30;35.40;99.90
16881;DHT22;8557;52.068;5.198;2022-07-29T14:45:57;35.60;50.40
16881;DHT22;8557;52.068;5.198;2022-07-29T14:48:24;35.80;16.20
16881;DHT22;8557;52.068;5.198;2022-07-29T14:50:50;36.10;99.90
16881;DHT22;8557;52.068;5.198;2022-07-29T14:53:20;36.40;52.00
16881;DHT22;8557;52.068;5.198;2022-07-29T14:55:48;36.60;78.90
16881;DHT22;8557;52.068;5.198;2022-07-29T14:58:15;36.80;99.90
16881;DHT22;8557;52.068;5.198;2022-07-29T15:00:41;36.90;99.90
16881;DHT22;8557;52.068;5.198;2022-07-29T15:03:08;36.60;1.00
16881;DHT22;8557;52.068;5.198;2022-07-29T15:05:35;36.70;1.00
16881;DHT22;8557;52.068;5.198;2022-07-29T15:08:03;36.60;1.00
16881;DHT22;8557;52.068;5.198;2022-07-29T15:10:29;36.70;1.00
16881;DHT22;8557;52.068;5.198;2022-07-29T15:12:58;36.90;1.00
16881;DHT22;8557;52.068;5.198;2022-07-29T15:15:24;36.80;1.00
16881;DHT22;8557;52.068;5.198;2022-07-29T15:17:51;37.00;1.00
16881;DHT22;8557;52.068;5.198;2022-07-29T15:20:18;37.30;1.00
16881;DHT22;8557;52.068;5.198;2022-07-29T15:22:45;37.60;1.00
16881;DHT22;8557;52.068;5.198;2022-07-29T15:25:14;37.80;1.00
16881;DHT22;8557;52.068;5.198;2022-07-29T15:27:41;37.90;1.00
16881;DHT22;8557;52.068;5.198;2022-07-29T15:30:10;37.80;1.00
16881;DHT22;8557;52.068;5.198;2022-07-29T15:32:40;37.90;1.00
16881;DHT22;8557;52.068;5.198;2022-07-29T15:35:10;38.00;1.00
16881;DHT22;8557;52.068;5.198;2022-07-29T15:37:36;37.50;1.00
16881;DHT22;8557;52.068;5.198;2022-07-29T15:40:04;37.10;1.00
16881;DHT22;8557;52.068;5.198;2022-07-29T15:42:31;37.20;1.00
16881;DHT22;8557;52.068;5.198;2022-07-29T15:44:59;37.20;1.00
16881;DHT22;8557;52.068;5.198;2022-07-29T15:47:29;37.00;1.00
16881;DHT22;8557;52.068;5.198;2022-07-29T15:49:56;37.10;1.00
16881;DHT22;8557;52.068;5.198;2022-07-29T15:52:23;37.40;1.00
16881;DHT22;8557;52.068;5.198;2022-07-29T15:54:49;37.60;1.00
16881;DHT22;8557;52.068;5.198;2022-07-29T15:57:16;36.70;1.00
16881;DHT22;8557;52.068;5.198;2022-07-29T15:59:43;36.10;1.00
16881;DHT22;8557;52.068;5.198;2022-07-29T16:02:09;36.00;1.00
16881;DHT22;8557;52.068;5.198;2022-07-29T16:04:37;36.00;99.90
16881;DHT22;8557;52.068;5.198;2022-07-29T16:07:04;36.10;99.90
16881;DHT22;8557;52.068;5.198;2022-07-29T16:09:33;36.20;99.90